sensor_id;sensor_type;location;lat;lon;timestamp;temperature;humidity
12335;DHT22;6233;51.560;9.986;2022-08-01T00:02:54;19.20;99.90
12335;DHT22;6233;51.560;9.986;2022-08-01T00:05:56;19.10;99.90
12335;DHT22;6233;51.560;9.986;2022-08-01T00:08:57;19.10;99.90
12335;DHT22;6233;51.560;9.986;2022-08-01T00:11:59;19.10;99.90
12335;DHT22;6233;51.560;9.986;2022-08-01T00:15:02;19.10;99.90
12335;DHT22;6233;51.560;9.986;2022-08-01T00:18:04;19.10;99.90
12335;DHT22;6233;51.560;9.986;2022-08-01T00:21:05;19.10;99.90
12335;DHT22;6233;51.560;9.986;2022-08-01T00:24:07;19.10;99.90
12335;DHT22;6233;51.560;9.986;2022-08-01T00:27:16;19.00;99.90
12335;DHT22;6233;51.560;9.986;2022-08-01T00:30:17;19.00;99.90
12335;DHT22;6233;51.560;9.986;2022-08-01T00:33:19;19.00;99.90
12335;DHT22;6233;51.560;9.986;2022-08-01T00:36:21;19.00;99.90
12335;DHT22;6233;51.560;9.986;2022-08-01T00:39:22;19.00;99.90
12335;DHT22;6233;51.560;9.986;2022-08-01T00:42:24;19.00;99.90
12335;DHT22;6233;51.560;9.986;2022-08-01T00:45:26;19.00;99.90
12335;DHT22;6233;51.560;9.986;2022-08-01T00:48:28;19.00;99.90
12335;DHT22;6233;51.560;9.986;2022-08-01T00:51:30;19.00;99.90
12335;DHT22;6233;51.560;9.986;2022-08-01T00:54:32;19.00;99.90
12335;DHT22;6233;51.560;9.986;2022-08-01T00:57:34;19.00;99.90
12335;DHT22;6233;51.560;9.986;2022-08-01T01:00:56;19.00;99.90
12335;DHT22;6233;51.560;9.986;2022-08-01T01:03:59;19.00;99.90
12335;DHT22;6233;51.560;9.986;2022-08-01T01:07:19;19.00;99.90
12335;DHT22;6233;51.560;9.986;2022-08-01T01:10:32;19.00;99.90
12335;DHT22;6233;51.560;9.986;2022-08-01T01:13:51;18.80;99.90
12335;DHT22;6233;51.560;9.986;2022-08-01T01:16:53;18.70;99.90
12335;DHT22;6233;51.560;9.986;2022-08-01T01:19:57;18.60;99.90
12335;DHT22;6233;51.560;9.986;2022-08-01T01:30:28;18.50;99.90
12335;DHT22;6233;51.560;9.986;2022-08-01T01:33:32;18.50;99.90
12335;DHT22;6233;51.560;9.986;2022-08-01T01:36:35;18.40;99.90
12335;DHT22;6233;51.560;9.986;2022-08-01T01:39:40;18.40;99.90
12335;DHT22;6233;51.560;9.986;2022-08-01T01:42:56;18.40;99.90
12335;DHT22;6233;51.560;9.986;2022-08-01T01:45:59;18.40;99.90
12335;DHT22;6233;51.560;9.986;2022-08-01T01:49:01;18.40;99.90
12335;DHT22;6233;51.560;9.986;2022-08-01T01:52:04;18.40;99.90
12335;DHT22;6233;51.560;9.986;2022-08-01T01:55:08;18.30;99.90
12335;DHT22;6233;51.560;9.986;2022-08-01T01:58:12;18.30;99.90
12335;DHT22;6233;51.560;9.986;2022-08-01T02:01:14;18.30;99.90
12335;DHT22;6233;51.560;9.986;2022-08-01T02:04:42;18.30;99.90
12335;DHT22;6233;51.560;9.986;2022-08-01T02:07:45;18.30;99.90
12335;DHT22;6233;51.560;9.986;2022-08-01T02:10:50;18.30;99.90
12335;DHT22;6233;51.560;9.986;2022-08-01T02:14:13;18.30;99.90
12335;DHT22;6233;51.560;9.986;2022-08-01T02:17:17;18.30;99.90
12335;DHT22;6233;51.560;9.986;2022-08-01T02:20:20;18.40;99.90
12335;DHT22;6233;51.560;9.986;2022-08-01T02:23:23;18.40;99.90
12335;DHT22;6233;51.560;9.986;2022-08-01T02:26:27;18.40;99.90
12335;DHT22;6233;51.560;9.986;2022-08-01T02:29:58;18.40;99.90
12335;DHT22;6233;51.560;9.986;2022-08-01T02:33:06;18.40;99.90
12335;DHT22;6233;51.560;9.986;2022-08-01T02:36:16;18.40;99.90
12335;DHT22;6233;51.560;9.986;2022-08-01T02:39:35;18.40;99.90
12335;DHT22;6233;51.560;9.986;2022-08-01T02:42:38;18.40;99.90
12335;DHT22;6233;51.560;9.986;2022-08-01T02:45:47;18.40;99.90
12335;DHT22;6233;51.560;9.986;2022-08-01T02:48:52;18.40;99.90
12335;DHT22;6233;51.560;9.986;2022-08-01T02:51:55;18.40;99.90
12335;DHT22;6233;51.560;9.986;2022-08-01T02:54:58;18.40;99.90
12335;DHT22;6233;51.560;9.986;2022-08-01T02:58:02;18.40;99.90
12335;DHT22;6233;51.560;9.986;2022-08-01T03:01:06;18.40;99.90
12335;DHT22;6233;51.560;9.986;2022-08-01T03:04:09;18.50;99.90
12335;DHT22;6233;51.560;9.986;2022-08-01T03:07:12;18.40;99.90
12335;DHT22;6233;51.560;9.986;2022-08-01T03:10:16;18.40;99.90
12335;DHT22;6233;51.560;9.986;2022-08-01T03:13:18;18.30;99.90
12335;DHT22;6233;51.560;9.986;2022-08-01T03:16:23;18.20;99.90
12335;DHT22;6233;51.560;9.986;2022-08-01T03:19:28;18.20;99.90
12335;DHT22;6233;51.560;9.986;2022-08-01T03:22:32;18.10;99.90
12335;DHT22;6233;51.560;9.986;2022-08-01T03:25:38;18.10;99.90
12335;DHT22;6233;51.560;9.986;2022-08-01T03:28:41;18.00;99.90
12335;DHT22;6233;51.560;9.986;2022-08-01T03:31:46;18.00;99.90
12335;DHT22;6233;51.560;9.986;2022-08-01T03:34:49;18.00;99.90
12335;DHT22;6233;51.560;9.986;2022-08-01T03:37:53;18.00;99.90
12335;DHT22;6233;51.560;9.986;2022-08-01T03:41:19;17.90;99.90
12335;DHT22;6233;51.560;9.986;2022-08-01T03:44:25;18.00;99.90
12335;DHT22;6233;51.560;9.986;2022-08-01T03:47:31;18.00;99.90
12335;DHT22;6233;51.560;9.986;2022-08-01T03:50:34;17.90;99.90
12335;DHT22;6233;51.560;9.986;2022-08-01T03:53:38;17.90;99.90
12335;DHT22;6233;51.560;9.986;2022-08-01T03:56:43;17.90;99.90
12335;DHT22;6233;51.560;9.986;2022-08-01T03:59:48;17.90;99.90
12335;DHT22;6233;51.560;9.986;2022-08-01T04:02:51;17.80;99.90
12335;DHT22;6233;51.560;9.986;2022-08-01T04:05:53;17.80;99.90
12335;DHT22;6233;51.560;9.986;2022-08-01T04:08:54;17.80;99.90
12335;DHT22;6233;51.560;9.986;2022-08-01T04:11:58;17.90;99.90
12335;DHT22;6233;51.560;9.986;2022-08-01T04:15:01;17.90;99.90
12335;DHT22;6233;51.560;9.986;2022-08-01T04:18:06;17.90;99.90
12335;DHT22;6233;51.560;9.986;2022-08-01T04:21:08;18.00;99.90
12335;DHT22;6233;51.560;9.986;2022-08-01T04:24:16;18.00;99.90
12335;DHT22;6233;51.560;9.986;2022-08-01T04:27:40;18.00;99.90
12335;DHT22;6233;51.560;9.986;2022-08-01T04:30:54;18.00;99.90
12335;DHT22;6233;51.560;9.986;2022-08-01T04:34:04;18.10;99.90
12335;DHT22;6233;51.560;9.986;2022-08-01T04:37:09;18.20;99.90
12335;DHT22;6233;51.560;9.986;2022-08-01T04:40:14;18.20;99.90
12335;DHT22;6233;51.560;9.986;2022-08-01T04:43:17;18.20;99.90
12335;DHT22;6233;51.560;9.986;2022-08-01T04:46:20;18.30;99.90
12335;DHT22;6233;51.560;9.986;2022-08-01T04:49:22;18.30;99.90
12335;DHT22;6233;51.560;9.986;2022-08-01T04:52:36;18.30;99.90
12335;DHT22;6233;51.560;9.986;2022-08-01T04:55:38;18.30;99.90
12335;DHT22;6233;51.560;9.986;2022-08-01T04:58:40;18.30;99.90
12335;DHT22;6233;51.560;9.986;2022-08-01T05:01:42;18.40;99.90
12335;DHT22;6233;51.560;9.986;2022-08-01T05:04:45;18.40;99.90
12335;DHT22;6233;51.560;9.986;2022-08-01T05:07:47;18.30;99.90
12335;DHT22;6233;51.560;9.986;2022-08-01T05:10:49;18.30;99.90
12335;DHT22;6233;51.560;9.986;2022-08-01T05:13:50;18.30;99.90
12335;DHT22;6233;51.560;9.986;2022-08-01T05:16:53;18.30;99.90
12335;DHT22;6233;51.560;9.986;2022-08-01T05:19:55;18.20;99.90
12335;DHT22;6233;51.560;9.986;2022-08-01T05:22:56;18.20;99.90
12335;DHT22;6233;51.560;9.986;2022-08-01T05:25:58;18.20;99.90
12335;DHT22;6233;51.560;9.986;2022-08-01T05:29:00;18.20;99.90
12335;DHT22;6233;51.560;9.986;2022-08-01T05:32:02;18.30;99.90
12335;DHT22;6233;51.560;9.986;2022-08-01T05:35:05;18.40;99.90
12335;DHT22;6233;51.560;9.986;2022-08-01T05:38:07;18.40;99.90
12335;DHT22;6233;51.560;9.986;2022-08-01T05:41:15;18.50;99.90
12335;DHT22;6233;51.560;9.986;2022-08-01T05:44:17;18.50;99.90
12335;DHT22;6233;51.560;9.986;2022-08-01T05:47:19;18.50;99.90
12335;DHT22;6233;51.560;9.986;2022-08-01T05:50:20;18.50;99.90
12335;DHT22;6233;51.560;9.986;2022-08-01T05:53:22;18.60;99.90
12335;DHT22;6233;51.560;9.986;2022-08-01T05:56:24;18.70;99.90
12335;DHT22;6233;51.560;9.986;2022-08-01T05:59:40;18.70;99.90
12335;DHT22;6233;51.560;9.986;2022-08-01T06:02:42;18.80;99.90
12335;DHT22;6233;51.560;9.986;2022-08-01T06:05:44;18.80;99.90
12335;DHT22;6233;51.560;9.986;2022-08-01T06:08:46;18.80;99.90
12335;DHT22;6233;51.560;9.986;2022-08-01T06:11:52;18.90;99.90
12335;DHT22;6233;51.560;9.986;2022-08-01T06:14:53;18.90;99.90
12335;DHT22;6233;51.560;9.986;2022-08-01T06:17:55;18.90;99.90
12335;DHT22;6233;51.560;9.986;2022-08-01T06:20:57;18.90;99.90
12335;DHT22;6233;51.560;9.986;2022-08-01T06:23:58;19.00;99.90
12335;DHT22;6233;51.560;9.986;2022-08-01T06:27:01;19.10;99.90
12335;DHT22;6233;51.560;9.986;2022-08-01T06:30:04;19.20;99.90
12335;DHT22;6233;51.560;9.986;2022-08-01T06:33:06;19.30;99.90
12335;DHT22;6233;51.560;9.986;2022-08-01T06:36:08;19.40;99.90
12335;DHT22;6233;51.560;9.986;2022-08-01T06:39:10;19.50;99.90
12335;DHT22;6233;51.560;9.986;2022-08-01T06:42:12;19.50;99.90
12335;DHT22;6233;51.560;9.986;2022-08-01T06:45:16;19.60;99.90
12335;DHT22;6233;51.560;9.986;2022-08-01T06:48:18;19.60;99.90
12335;DHT22;6233;51.560;9.986;2022-08-01T06:51:20;19.70;99.90
12335;DHT22;6233;51.560;9.986;2022-08-01T06:54:24;19.90;99.90
12335;DHT22;6233;51.560;9.986;2022-08-01T06:57:26;20.00;99.90
12335;DHT22;6233;51.560;9.986;2022-08-01T07:00:28;20.20;99.90
12335;DHT22;6233;51.560;9.986;2022-08-01T07:03:33;20.30;99.90
12335;DHT22;6233;51.560;9.986;2022-08-01T07:06:55;20.30;99.90
12335;DHT22;6233;51.560;9.986;2022-08-01T07:09:56;20.20;99.90
12335;DHT22;6233;51.560;9.986;2022-08-01T07:12:58;20.30;99.90
12335;DHT22;6233;51.560;9.986;2022-08-01T07:16:00;20.40;99.90
12335;DHT22;6233;51.560;9.986;2022-08-01T07:19:02;20.60;99.90
12335;DHT22;6233;51.560;9.986;2022-08-01T07:22:03;20.70;99.90
12335;DHT22;6233;51.560;9.986;2022-08-01T07:25:06;20.70;99.90
12335;DHT22;6233;51.560;9.986;2022-08-01T07:28:08;20.60;99.90
12335;DHT22;6233;51.560;9.986;2022-08-01T07:31:10;20.50;99.90
12335;DHT22;6233;51.560;9.986;2022-08-01T07:34:12;20.40;99.90
12335;DHT22;6233;51.560;9.986;2022-08-01T07:37:14;20.30;99.90
12335;DHT22;6233;51.560;9.986;2022-08-01T07:40:16;20.30;99.90
12335;DHT22;6233;51.560;9.986;2022-08-01T07:43:19;20.30;99.90
12335;DHT22;6233;51.560;9.986;2022-08-01T07:46:21;20.50;99.90
12335;DHT22;6233;51.560;9.986;2022-08-01T07:49:23;20.60;99.90
12335;DHT22;6233;51.560;9.986;2022-08-01T07:52:25;20.70;99.90
12335;DHT22;6233;51.560;9.986;2022-08-01T07:55:28;20.70;99.90
12335;DHT22;6233;51.560;9.986;2022-08-01T07:58:30;20.80;99.90
12335;DHT22;6233;51.560;9.986;2022-08-01T08:01:32;20.70;99.90
12335;DHT22;6233;51.560;9.986;2022-08-01T08:04:33;20.70;99.90
12335;DHT22;6233;51.560;9.986;2022-08-01T08:07:35;20.80;99.90
12335;DHT22;6233;51.560;9.986;2022-08-01T08:10:37;20.90;99.90
12335;DHT22;6233;51.560;9.986;2022-08-01T08:13:41;20.90;99.90
12335;DHT22;6233;51.560;9.986;2022-08-01T08:16:44;20.80;99.90
12335;DHT22;6233;51.560;9.986;2022-08-01T08:19:46;20.80;99.90
12335;DHT22;6233;51.560;9.986;2022-08-01T08:22:47;20.70;99.90
12335;DHT22;6233;51.560;9.986;2022-08-01T08:25:49;20.80;99.90
12335;DHT22;6233;51.560;9.986;2022-08-01T08:28:51;20.80;99.90
12335;DHT22;6233;51.560;9.986;2022-08-01T08:31:53;20.90;99.90
12335;DHT22;6233;51.560;9.986;2022-08-01T08:34:57;20.90;99.90
12335;DHT22;6233;51.560;9.986;2022-08-01T08:37:59;20.90;99.90
12335;DHT22;6233;51.560;9.986;2022-08-01T08:41:02;20.80;99.90
12335;DHT22;6233;51.560;9.986;2022-08-01T08:44:05;20.80;99.90
12335;DHT22;6233;51.560;9.986;2022-08-01T08:47:12;21.30;99.90
12335;DHT22;6233;51.560;9.986;2022-08-01T08:50:20;21.90;99.90
12335;DHT22;6233;51.560;9.986;2022-08-01T08:53:22;22.00;99.90
12335;DHT22;6233;51.560;9.986;2022-08-01T08:56:25;22.10;99.90
12335;DHT22;6233;51.560;9.986;2022-08-01T08:59:29;22.10;99.90
12335;DHT22;6233;51.560;9.986;2022-08-01T09:02:31;22.00;99.90
12335;DHT22;6233;51.560;9.986;2022-08-01T09:05:32;21.80;99.90
12335;DHT22;6233;51.560;9.986;2022-08-01T09:08:40;21.60;99.90
12335;DHT22;6233;51.560;9.986;2022-08-01T09:11:42;21.50;99.90
12335;DHT22;6233;51.560;9.986;2022-08-01T09:14:57;21.40;99.90
12335;DHT22;6233;51.560;9.986;2022-08-01T09:17:59;21.30;99.90
12335;DHT22;6233;51.560;9.986;2022-08-01T09:21:20;21.40;99.90
12335;DHT22;6233;51.560;9.986;2022-08-01T09:24:24;21.50;99.90
12335;DHT22;6233;51.560;9.986;2022-08-01T09:27:31;21.50;99.90
12335;DHT22;6233;51.560;9.986;2022-08-01T09:30:37;21.60;99.90
12335;DHT22;6233;51.560;9.986;2022-08-01T09:33:54;21.80;99.90
12335;DHT22;6233;51.560;9.986;2022-08-01T09:37:01;22.10;99.90
12335;DHT22;6233;51.560;9.986;2022-08-01T09:40:04;22.30;99.90
12335;DHT22;6233;51.560;9.986;2022-08-01T09:43:11;22.40;99.90
12335;DHT22;6233;51.560;9.986;2022-08-01T09:46:16;22.80;99.90
12335;DHT22;6233;51.560;9.986;2022-08-01T09:49:29;23.30;99.90
12335;DHT22;6233;51.560;9.986;2022-08-01T09:52:54;23.30;99.90
12335;DHT22;6233;51.560;9.986;2022-08-01T09:56:09;23.40;99.90
12335;DHT22;6233;51.560;9.986;2022-08-01T09:59:12;23.30;99.90
12335;DHT22;6233;51.560;9.986;2022-08-01T10:02:30;23.40;99.90
12335;DHT22;6233;51.560;9.986;2022-08-01T10:05:34;23.40;99.90
12335;DHT22;6233;51.560;9.986;2022-08-01T10:08:46;23.30;99.90
12335;DHT22;6233;51.560;9.986;2022-08-01T10:11:48;23.40;99.90
12335;DHT22;6233;51.560;9.986;2022-08-01T10:14:51;23.50;99.90
12335;DHT22;6233;51.560;9.986;2022-08-01T10:17:58;23.50;99.90
12335;DHT22;6233;51.560;9.986;2022-08-01T10:21:02;23.70;99.90
12335;DHT22;6233;51.560;9.986;2022-08-01T10:24:11;23.90;99.90
12335;DHT22;6233;51.560;9.986;2022-08-01T10:27:15;24.00;99.90
12335;DHT22;6233;51.560;9.986;2022-08-01T10:31:00;23.90;99.90
12335;DHT22;6233;51.560;9.986;2022-08-01T10:34:13;24.20;99.90
12335;DHT22;6233;51.560;9.986;2022-08-01T10:37:17;24.50;99.90
12335;DHT22;6233;51.560;9.986;2022-08-01T10:40:19;24.60;99.90
12335;DHT22;6233;51.560;9.986;2022-08-01T10:43:37;24.50;99.90
12335;DHT22;6233;51.560;9.986;2022-08-01T10:46:46;24.60;99.90
12335;DHT22;6233;51.560;9.986;2022-08-01T10:50:17;24.70;99.90
12335;DHT22;6233;51.560;9.986;2022-08-01T10:53:29;25.00;99.90
12335;DHT22;6233;51.560;9.986;2022-08-01T10:56:59;25.00;99.90
12335;DHT22;6233;51.560;9.986;2022-08-01T11:00:17;25.20;99.90
12335;DHT22;6233;51.560;9.986;2022-08-01T11:03:32;25.00;99.90
12335;DHT22;6233;51.560;9.986;2022-08-01T11:07:07;24.90;99.90
12335;DHT22;6233;51.560;9.986;2022-08-01T11:17:34;24.40;99.90
12335;DHT22;6233;51.560;9.986;2022-08-01T11:20:56;24.40;99.90
12335;DHT22;6233;51.560;9.986;2022-08-01T11:34:18;23.50;99.90
12335;DHT22;6233;51.560;9.986;2022-08-01T11:37:27;23.30;99.90
12335;DHT22;6233;51.560;9.986;2022-08-01T11:40:31;23.30;99.90
12335;DHT22;6233;51.560;9.986;2022-08-01T11:43:33;23.20;99.90
12335;DHT22;6233;51.560;9.986;2022-08-01T11:49:57;23.30;99.90
12335;DHT22;6233;51.560;9.986;2022-08-01T11:53:03;23.00;99.90
12335;DHT22;6233;51.560;9.986;2022-08-01T11:56:19;22.70;99.90
12335;DHT22;6233;51.560;9.986;2022-08-01T11:59:22;22.60;99.90
12335;DHT22;6233;51.560;9.986;2022-08-01T12:05:33;22.60;99.90
12335;DHT22;6233;51.560;9.986;2022-08-01T12:08:35;22.80;99.90
12335;DHT22;6233;51.560;9.986;2022-08-01T12:11:38;22.90;99.90
12335;DHT22;6233;51.560;9.986;2022-08-01T12:14:40;22.90;99.90
12335;DHT22;6233;51.560;9.986;2022-08-01T12:17:45;22.90;99.90
12335;DHT22;6233;51.560;9.986;2022-08-01T12:21:02;22.80;99.90
12335;DHT22;6233;51.560;9.986;2022-08-01T12:24:06;22.80;99.90
12335;DHT22;6233;51.560;9.986;2022-08-01T12:27:09;22.90;99.90
12335;DHT22;6233;51.560;9.986;2022-08-01T12:30:13;22.90;99.90
12335;DHT22;6233;51.560;9.986;2022-08-01T12:33:20;22.90;99.90
12335;DHT22;6233;51.560;9.986;2022-08-01T12:36:28;22.90;99.90
12335;DHT22;6233;51.560;9.986;2022-08-01T12:39:34;22.90;99.90
12335;DHT22;6233;51.560;9.986;2022-08-01T12:42:42;23.00;99.90
12335;DHT22;6233;51.560;9.986;2022-08-01T12:45:45;23.10;99.90
12335;DHT22;6233;51.560;9.986;2022-08-01T12:48:57;23.20;99.90
12335;DHT22;6233;51.560;9.986;2022-08-01T12:52:00;23.30;99.90
12335;DHT22;6233;51.560;9.986;2022-08-01T12:55:07;23.30;99.90
12335;DHT22;6233;51.560;9.986;2022-08-01T12:58:12;23.40;99.90
12335;DHT22;6233;51.560;9.986;2022-08-01T13:01:26;23.50;99.90
12335;DHT22;6233;51.560;9.986;2022-08-01T13:04:28;23.50;99.90
12335;DHT22;6233;51.560;9.986;2022-08-01T13:07:44;23.60;99.90
12335;DHT22;6233;51.560;9.986;2022-08-01T13:10:47;23.60;99.90
12335;DHT22;6233;51.560;9.986;2022-08-01T13:13:50;23.70;99.90
12335;DHT22;6233;51.560;9.986;2022-08-01T13:16:52;23.80;99.90
12335;DHT22;6233;51.560;9.986;2022-08-01T13:19:58;23.80;99.90
12335;DHT22;6233;51.560;9.986;2022-08-01T13:23:19;23.80;99.90
12335;DHT22;6233;51.560;9.986;2022-08-01T13:26:51;23.80;99.90
12335;DHT22;6233;51.560;9.986;2022-08-01T13:29:53;24.00;99.90
12335;DHT22;6233;51.560;9.986;2022-08-01T13:33:00;23.90;99.90
12335;DHT22;6233;51.560;9.986;2022-08-01T13:36:03;23.90;99.90
12335;DHT22;6233;51.560;9.986;2022-08-01T13:39:05;23.80;99.90
12335;DHT22;6233;51.560;9.986;2022-08-01T13:42:25;23.70;99.90
12335;DHT22;6233;51.560;9.986;2022-08-01T13:45:27;23.60;99.90
12335;DHT22;6233;51.560;9.986;2022-08-01T13:48:42;23.40;99.90
12335;DHT22;6233;51.560;9.986;2022-08-01T13:51:46;23.30;99.90
12335;DHT22;6233;51.560;9.986;2022-08-01T13:54:48;23.30;99.90
12335;DHT22;6233;51.560;9.986;2022-08-01T13:57:51;23.30;99.90
12335;DHT22;6233;51.560;9.986;2022-08-01T14:00:53;23.30;99.90
12335;DHT22;6233;51.560;9.986;2022-08-01T14:03:55;23.30;99.90
12335;DHT22;6233;51.560;9.986;2022-08-01T14:06:57;23.30;99.90
12335;DHT22;6233;51.560;9.986;2022-08-01T14:10:02;23.30;99.90
12335;DHT22;6233;51.560;9.986;2022-08-01T14:13:19;23.30;99.90
12335;DHT22;6233;51.560;9.986;2022-08-01T14:16:24;23.30;99.90
12335;DHT22;6233;51.560;9.986;2022-08-01T14:19:28;23.20;99.90
12335;DHT22;6233;51.560;9.986;2022-08-01T14:22:39;23.20;99.90
12335;DHT22;6233;51.560;9.986;2022-08-01T14:25:41;23.30;99.90
12335;DHT22;6233;51.560;9.986;2022-08-01T14:29:04;23.30;99.90
12335;DHT22;6233;51.560;9.986;2022-08-01T14:32:06;23.20;99.90
12335;DHT22;6233;51.560;9.986;2022-08-01T14:35:08;23.20;99.90
12335;DHT22;6233;51.560;9.986;2022-08-01T14:38:10;23.10;99.90
12335;DHT22;6233;51.560;9.986;2022-08-01T14:41:22;23.00;99.90
12335;DHT22;6233;51.560;9.986;2022-08-01T14:44:23;22.90;99.90
12335;DHT22;6233;51.560;9.986;2022-08-01T14:47:28;22.80;99.90
12335;DHT22;6233;51.560;9.986;2022-08-01T14:50:30;22.70;99.90
12335;DHT22;6233;51.560;9.986;2022-08-01T14:53:32;22.70;99.90
12335;DHT22;6233;51.560;9.986;2022-08-01T14:56:36;22.70;99.90
12335;DHT22;6233;51.560;9.986;2022-08-01T14:59:38;22.60;99.90
12335;DHT22;6233;51.560;9.986;2022-08-01T15:02:40;22.60;99.90
12335;DHT22;6233;51.560;9.986;2022-08-01T15:05:42;22.50;99.90
12335;DHT22;6233;51.560;9.986;2022-08-01T15:08:44;22.40;99.90
12335;DHT22;6233;51.560;9.986;2022-08-01T15:11:45;22.50;99.90
12335;DHT22;6233;51.560;9.986;2022-08-01T15:14:48;22.40;99.90
12335;DHT22;6233;51.560;9.986;2022-08-01T15:17:50;22.40;99.90
12335;DHT22;6233;51.560;9.986;2022-08-01T15:20:54;22.50;99.90
12335;DHT22;6233;51.560;9.986;2022-08-01T15:23:56;22.40;99.90
12335;DHT22;6233;51.560;9.986;2022-08-01T15:26:57;22.40;99.90
12335;DHT22;6233;51.560;9.986;2022-08-01T15:29:59;22.30;99.90
12335;DHT22;6233;51.560;9.986;2022-08-01T15:33:01;22.30;99.90
12335;DHT22;6233;51.560;9.986;2022-08-01T15:36:03;22.30;99.90
12335;DHT22;6233;51.560;9.986;2022-08-01T15:39:05;22.30;99.90
12335;DHT22;6233;51.560;9.986;2022-08-01T15:42:09;22.30;99.90
12335;DHT22;6233;51.560;9.986;2022-08-01T15:45:12;22.30;99.90
12335;DHT22;6233;51.560;9.986;2022-08-01T15:48:39;22.40;99.90
12335;DHT22;6233;51.560;9.986;2022-08-01T15:51:42;22.50;99.90
12335;DHT22;6233;51.560;9.986;2022-08-01T15:54:44;22.60;99.90
12335;DHT22;6233;51.560;9.986;2022-08-01T15:57:46;22.60;99.90
12335;DHT22;6233;51.560;9.986;2022-08-01T16:00:48;22.60;99.90
12335;DHT22;6233;51.560;9.986;2022-08-01T16:03:49;22.60;99.90
12335;DHT22;6233;51.560;9.986;2022-08-01T16:06:51;22.60;99.90
12335;DHT22;6233;51.560;9.986;2022-08-01T16:09:53;22.60;99.90
12335;DHT22;6233;51.560;9.986;2022-08-01T16:12:54;22.50;99.90
12335;DHT22;6233;51.560;9.986;2022-08-01T16:15:56;22.40;99.90
12335;DHT22;6233;51.560;9.986;2022-08-01T16:19:00;22.30;99.90
12335;DHT22;6233;51.560;9.986;2022-08-01T16:22:01;22.20;99.90
12335;DHT22;6233;51.560;9.986;2022-08-01T16:25:03;22.10;99.90
12335;DHT22;6233;51.560;9.986;2022-08-01T16:28:05;22.10;99.90
12335;DHT22;6233;51.560;9.986;2022-08-01T16:31:07;22.10;99.90
12335;DHT22;6233;51.560;9.986;2022-08-01T16:34:22;22.20;99.90
12335;DHT22;6233;51.560;9.986;2022-08-01T16:37:24;22.10;99.90
12335;DHT22;6233;51.560;9.986;2022-08-01T16:40:26;22.10;99.90
12335;DHT22;6233;51.560;9.986;2022-08-01T16:43:28;22.10;99.90
12335;DHT22;6233;51.560;9.986;2022-08-01T16:46:29;22.00;99.90
12335;DHT22;6233;51.560;9.986;2022-08-01T16:49:31;22.00;99.90
12335;DHT22;6233;51.560;9.986;2022-08-01T16:52:33;21.90;99.90
12335;DHT22;6233;51.560;9.986;2022-08-01T16:55:43;21.80;99.90
12335;DHT22;6233;51.560;9.986;2022-08-01T16:58:51;21.70;99.90
12335;DHT22;6233;51.560;9.986;2022-08-01T17:01:53;21.60;99.90
12335;DHT22;6233;51.560;9.986;2022-08-01T17:05:03;21.60;99.90
12335;DHT22;6233;51.560;9.986;2022-08-01T17:08:09;21.50;99.90
12335;DHT22;6233;51.560;9.986;2022-08-01T17:11:13;21.50;99.90
12335;DHT22;6233;51.560;9.986;2022-08-01T17:14:15;21.50;99.90
12335;DHT22;6233;51.560;9.986;2022-08-01T17:17:27;21.50;99.90
12335;DHT22;6233;51.560;9.986;2022-08-01T17:20:53;21.50;99.90
12335;DHT22;6233;51.560;9.986;2022-08-01T17:23:55;21.50;99.90
12335;DHT22;6233;51.560;9.986;2022-08-01T17:27:03;21.40;99.90
12335;DHT22;6233;51.560;9.986;2022-08-01T17:30:11;21.40;99.90
12335;DHT22;6233;51.560;9.986;2022-08-01T17:33:14;21.40;99.90
12335;DHT22;6233;51.560;9.986;2022-08-01T17:36:16;21.30;99.90
12335;DHT22;6233;51.560;9.986;2022-08-01T17:39:18;21.20;99.90
12335;DHT22;6233;51.560;9.986;2022-08-01T17:42:40;21.30;99.90
12335;DHT22;6233;51.560;9.986;2022-08-01T17:45:42;21.30;99.90
12335;DHT22;6233;51.560;9.986;2022-08-01T17:48:51;21.20;99.90
12335;DHT22;6233;51.560;9.986;2022-08-01T17:55:30;21.20;99.90
12335;DHT22;6233;51.560;9.986;2022-08-01T17:58:52;21.20;99.90
12335;DHT22;6233;51.560;9.986;2022-08-01T18:01:59;21.20;99.90
12335;DHT22;6233;51.560;9.986;2022-08-01T18:05:01;21.10;99.90
12335;DHT22;6233;51.560;9.986;2022-08-01T18:08:05;21.10;99.90
12335;DHT22;6233;51.560;9.986;2022-08-01T18:11:08;21.10;99.90
12335;DHT22;6233;51.560;9.986;2022-08-01T18:14:10;21.00;99.90
12335;DHT22;6233;51.560;9.986;2022-08-01T18:17:12;21.10;99.90
12335;DHT22;6233;51.560;9.986;2022-08-01T18:20:14;21.00;99.90
12335;DHT22;6233;51.560;9.986;2022-08-01T18:23:15;21.00;99.90
12335;DHT22;6233;51.560;9.986;2022-08-01T18:26:20;21.00;99.90
12335;DHT22;6233;51.560;9.986;2022-08-01T18:29:22;20.90;99.90
12335;DHT22;6233;51.560;9.986;2022-08-01T18:32:44;20.90;99.90
12335;DHT22;6233;51.560;9.986;2022-08-01T18:35:45;20.90;99.90
12335;DHT22;6233;51.560;9.986;2022-08-01T18:38:54;20.80;99.90
12335;DHT22;6233;51.560;9.986;2022-08-01T18:41:56;20.80;99.90
12335;DHT22;6233;51.560;9.986;2022-08-01T18:45:10;20.80;99.90
12335;DHT22;6233;51.560;9.986;2022-08-01T18:48:13;20.70;99.90
12335;DHT22;6233;51.560;9.986;2022-08-01T18:51:14;20.60;99.90
12335;DHT22;6233;51.560;9.986;2022-08-01T18:54:16;20.60;99.90
12335;DHT22;6233;51.560;9.986;2022-08-01T18:57:20;20.60;99.90
12335;DHT22;6233;51.560;9.986;2022-08-01T19:00:22;20.50;99.90
12335;DHT22;6233;51.560;9.986;2022-08-01T19:03:24;20.40;99.90
12335;DHT22;6233;51.560;9.986;2022-08-01T19:06:26;20.40;99.90
12335;DHT22;6233;51.560;9.986;2022-08-01T19:09:28;20.30;99.90
12335;DHT22;6233;51.560;9.986;2022-08-01T19:12:30;20.30;99.90
12335;DHT22;6233;51.560;9.986;2022-08-01T19:15:32;20.20;99.90
12335;DHT22;6233;51.560;9.986;2022-08-01T19:18:34;20.20;99.90
12335;DHT22;6233;51.560;9.986;2022-08-01T19:21:37;20.10;99.90
12335;DHT22;6233;51.560;9.986;2022-08-01T19:24:45;20.00;99.90
12335;DHT22;6233;51.560;9.986;2022-08-01T19:27:48;20.00;99.90
12335;DHT22;6233;51.560;9.986;2022-08-01T19:30:51;19.90;99.90
12335;DHT22;6233;51.560;9.986;2022-08-01T19:33:56;19.80;99.90
12335;DHT22;6233;51.560;9.986;2022-08-01T19:37:00;19.70;99.90
12335;DHT22;6233;51.560;9.986;2022-08-01T19:40:02;19.70;99.90
12335;DHT22;6233;51.560;9.986;2022-08-01T19:43:06;19.60;99.90
12335;DHT22;6233;51.560;9.986;2022-08-01T19:46:10;19.50;99.90
12335;DHT22;6233;51.560;9.986;2022-08-01T19:49:20;19.40;99.90
12335;DHT22;6233;51.560;9.986;2022-08-01T19:52:24;19.30;99.90
12335;DHT22;6233;51.560;9.986;2022-08-01T19:55:29;19.30;99.90
12335;DHT22;6233;51.560;9.986;2022-08-01T19:58:41;19.20;99.90
12335;DHT22;6233;51.560;9.986;2022-08-01T20:01:44;19.20;99.90
12335;DHT22;6233;51.560;9.986;2022-08-01T20:04:50;19.10;99.90
12335;DHT22;6233;51.560;9.986;2022-08-01T20:07:52;19.10;99.90
12335;DHT22;6233;51.560;9.986;2022-08-01T20:10:56;19.00;99.90
12335;DHT22;6233;51.560;9.986;2022-08-01T20:14:03;19.00;99.90
12335;DHT22;6233;51.560;9.986;2022-08-01T20:17:05;18.90;99.90
12335;DHT22;6233;51.560;9.986;2022-08-01T20:20:08;18.80;99.90
12335;DHT22;6233;51.560;9.986;2022-08-01T20:23:13;18.70;99.90
12335;DHT22;6233;51.560;9.986;2022-08-01T20:26:19;18.50;99.90